Time;durP1;ratioP1;P1;durP2;ratioP2;P2;SDS_P1;SDS_P2;PMS_P1;PMS_P2;Temp;Humidity;BMP_temperature;BMP_pressure;BME280_temperature;BME280_humidity;BME280_pressure;Samples;Min_cycle;Max_cycle;Signal;HPM_P1;HPM_P2
2023/06/14 00:01:35;;;;;;;8.65;7.05;;;;;;;21.96;38.54;101308.13;4983763;28;20026;-81
2023/06/14 00:04:04;;;;;;;7.70;6.28;;;;;;;21.95;38.42;101311.81;4981475;28;20030;-81
2023/06/14 00:06:30;;;;;;;9.80;6.28;;;;;;;21.84;38.16;101303.75;4983185;28;20057;-81
2023/06/14 00:08:55;;;;;;;9.23;6.57;;;;;;;21.42;39.62;101297.25;4963899;28;20031;-81
2023/06/14 00:11:21;;;;;;;9.93;6.50;;;;;;;21.54;38.92;101301.66;4980918;28;20037;-81
2023/06/14 00:13:46;;;;;;;7.43;6.70;;;;;;;21.68;38.66;101314.00;4979467;28;20030;-81
2023/06/14 00:16:12;;;;;;;8.15;6.22;;;;;;;21.63;39.14;101309.00;4981235;28;20458;-81
2023/06/14 00:18:38;;;;;;;7.65;6.35;;;;;;;21.45;38.88;101307.75;4983008;28;20135;-81
2023/06/14 00:21:04;;;;;;;7.22;6.25;;;;;;;21.34;38.47;101304.09;4983672;28;20401;-81
2023/06/14 00:23:30;;;;;;;7.40;6.43;;;;;;;21.33;38.74;101310.44;4987278;28;20038;-81
2023/06/14 00:25:55;;;;;;;9.82;5.75;;;;;;;21.36;38.83;101314.75;4983815;28;20038;-81
2023/06/14 00:28:20;;;;;;;8.00;6.10;;;;;;;21.32;38.57;101315.94;4963677;28;20480;-81
2023/06/14 00:30:46;;;;;;;10.05;6.18;;;;;;;21.18;38.25;101313.44;4988706;28;20446;-81
2023/06/14 00:33:11;;;;;;;9.32;6.40;;;;;;;20.88;39.21;101318.34;4982654;28;20057;-81
2023/06/14 00:35:37;;;;;;;8.30;5.70;;;;;;;20.94;38.96;101318.84;4986243;28;20066;-81
2023/06/14 00:38:02;;;;;;;6.78;5.50;;;;;;;20.94;39.03;101318.84;4983734;28;20031;-81
2023/06/14 00:40:27;;;;;;;5.93;5.32;;;;;;;20.89;38.63;101311.16;4966615;28;20125;-81
2023/06/14 00:42:53;;;;;;;9.57;5.90;;;;;;;20.94;38.77;101305.41;4986611;28;20036;-81
2023/06/14 00:45:18;;;;;;;8.30;5.43;;;;;;;21.00;38.64;101315.72;4983246;28;20481;-81
2023/06/14 00:47:45;;;;;;;7.28;5.45;;;;;;;21.02;38.05;101319.13;4984535;28;20506;-81
2023/06/14 00:50:12;;;;;;;11.25;5.88;;;;;;;20.96;38.28;101324.97;4985804;28;20050;-81
2023/06/14 00:52:39;;;;;;;7.05;5.47;;;;;;;20.92;37.58;101321.66;4988515;28;20064;-81
2023/06/14 00:55:05;;;;;;;9.88;5.95;;;;;;;20.66;38.20;101317.38;4968319;28;20468;-81
2023/06/14 00:57:31;;;;;;;8.15;5.18;;;;;;;20.67;38.12;101319.97;4969938;28;20022;-81
2023/06/14 00:59:57;;;;;;;7.05;5.20;;;;;;;20.71;37.75;101318.78;4986052;28;20536;-81
2023/06/14 01:02:22;;;;;;;8.48;5.32;;;;;;;20.79;37.70;101321.72;4983780;28;20045;-81
2023/06/14 01:04:50;;;;;;;8.85;5.57;;;;;;;20.75;37.97;101314.91;4985717;28;20117;-81
2023/06/14 01:07:26;;;;;;;10.60;5.07;;;;;;;20.68;37.77;101318.16;4984503;28;20610;-81
2023/06/14 01:10:07;;;;;;;6.40;5.00;;;;;;;20.38;38.67;101322.13;4984466;28;20082;-81
2023/06/14 01:12:54;;;;;;;6.85;5.20;;;;;;;20.21;39.62;101323.34;4985591;28;20034;-81
2023/06/14 01:15:20;;;;;;;11.48;5.80;;;;;;;20.23;39.23;101318.72;4980690;28;20065;-81
2023/06/14 01:17:51;;;;;;;10.10;5.32;;;;;;;20.28;38.97;101316.53;4981403;28;20061;-81
2023/06/14 01:20:19;;;;;;;6.35;5.22;;;;;;;20.14;39.07;101324.75;4984386;28;20026;-81
2023/06/14 01:22:54;;;;;;;6.95;4.72;;;;;;;20.19;38.86;101322.63;4983774;28;20105;-81
2023/06/14 01:25:20;;;;;;;6.90;5.25;;;;;;;19.98;39.88;101318.78;4981913;28;21599;-81
2023/06/14 01:27:49;;;;;;;7.43;5.10;;;;;;;20.02;39.34;101321.13;4982847;28;20041;-81
2023/06/14 01:30:15;;;;;;;8.15;5.20;;;;;;;19.88;39.44;101318.59;4982459;28;20045;-81
2023/06/14 01:32:40;;;;;;;9.82;5.30;;;;;;;19.79;38.76;101328.16;4982376;28;20022;-81
2023/06/14 01:35:06;;;;;;;7.78;5.00;;;;;;;19.73;39.41;101319.69;4982447;28;20068;-81
2023/06/14 01:37:31;;;;;;;6.65;5.07;;;;;;;19.79;39.35;101320.09;4983728;28;20053;-81
2023/06/14 01:39:58;;;;;;;10.13;5.03;;;;;;;19.83;39.51;101328.78;4981600;28;20030;-81
2023/06/14 01:42:24;;;;;;;6.50;5.28;;;;;;;19.85;39.36;101319.66;4980777;28;20069;-81
2023/06/14 01:44:53;;;;;;;6.20;4.95;;;;;;;19.82;39.71;101319.03;4980065;28;20026;-81
2023/06/14 01:47:18;;;;;;;7.50;5.10;;;;;;;19.79;45.78;101325.47;4979329;28;20048;-81
2023/06/14 01:49:46;;;;;;;8.93;4.43;;;;;;;19.77;39.86;101316.69;4978639;28;20521;-81
2023/06/14 01:52:12;;;;;;;7.18;4.75;;;;;;;19.87;39.32;101323.09;4979577;28;20405;-81
2023/06/14 01:54:41;;;;;;;9.15;4.60;;;;;;;19.84;39.76;101320.63;4979996;28;20097;-81
2023/06/14 01:57:07;;;;;;;5.88;4.57;;;;;;;19.83;39.37;101323.44;4978762;28;20049;-81
2023/06/14 01:59:34;;;;;;;6.18;4.40;;;;;;;19.87;39.96;101319.56;4962862;28;20486;-81
2023/06/14 02:02:00;;;;;;;6.30;4.30;;;;;;;19.80;39.50;101316.44;4981674;28;20092;-81
2023/06/14 02:04:25;;;;;;;7.63;4.72;;;;;;;19.77;39.90;101316.69;4980141;28;20042;-81
2023/06/14 02:06:50;;;;;;;6.82;4.72;;;;;;;19.74;39.93;101329.44;4965034;28;20073;-81
2023/06/14 02:09:15;;;;;;;10.52;5.35;;;;;;;19.70;39.75;101325.25;4964561;28;20026;-81
2023/06/14 02:11:41;;;;;;;10.68;4.93;;;;;;;19.67;40.29;101326.31;4985341;28;20027;-81
2023/06/14 02:14:07;;;;;;;10.35;4.88;;;;;;;19.68;39.54;101321.81;4982715;28;20401;-81
2023/06/14 02:16:35;;;;;;;6.95;4.88;;;;;;;19.70;39.11;101317.22;4976598;28;20022;-81
2023/06/14 02:19:00;;;;;;;8.85;5.70;;;;;;;19.53;40.48;101315.69;4981780;28;20029;-81
2023/06/14 02:21:26;;;;;;;7.25;4.97;;;;;;;19.39;40.21;101327.38;4983465;28;20027;-80
2023/06/14 02:23:51;;;;;;;5.85;4.65;;;;;;;19.44;40.71;101319.00;4988187;28;20086;-81
2023/06/14 02:26:17;;;;;;;7.63;4.85;;;;;;;19.46;40.62;101317.94;4966821;28;20026;-81
2023/06/14 02:28:42;;;;;;;12.07;4.90;;;;;;;19.41;40.59;101320.09;4984197;28;20033;-81
2023/06/14 02:31:08;;;;;;;7.63;4.72;;;;;;;19.42;40.47;101320.94;4984176;28;20038;-81
2023/06/14 02:33:33;;;;;;;5.50;4.35;;;;;;;19.26;40.96;101321.16;4984472;28;20034;-81
2023/06/14 02:35:58;;;;;;;10.02;4.90;;;;;;;19.15;41.39;101335.28;4962395;28;20482;-81
2023/06/14 02:38:23;;;;;;;5.43;4.28;;;;;;;19.17;41.32;101328.00;4987477;28;20026;-81
2023/06/14 02:40:49;;;;;;;6.40;4.38;;;;;;;19.13;41.35;101337.22;4983485;28;20018;-81
2023/06/14 02:43:15;;;;;;;8.10;4.55;;;;;;;19.13;40.88;101328.31;4969769;28;20385;-81
2023/06/14 02:45:40;;;;;;;7.35;4.30;;;;;;;19.10;40.76;101332.91;4966314;28;20042;-81
2023/06/14 02:48:05;;;;;;;8.90;4.65;;;;;;;18.97;41.19;101336.53;4982366;28;20038;-81
2023/06/14 02:50:31;;;;;;;7.75;4.53;;;;;;;18.91;40.97;101332.44;4985958;28;20032;-81
2023/06/14 02:52:56;;;;;;;7.85;4.53;;;;;;;18.88;41.34;101338.00;4988081;28;20026;-81
2023/06/14 02:55:22;;;;;;;7.80;4.88;;;;;;;18.80;41.05;101333.19;4985877;28;20022;-81
2023/06/14 02:57:48;;;;;;;5.28;4.38;;;;;;;18.83;41.74;101337.44;4986685;28;20049;-81
2023/06/14 03:00:13;;;;;;;10.82;5.20;;;;;;;18.82;41.33;101333.91;4991129;28;20057;-81
2023/06/14 03:02:39;;;;;;;5.03;4.32;;;;;;;18.79;41.65;101341.28;4989287;28;20504;-81
2023/06/14 03:05:06;;;;;;;7.40;4.70;;;;;;;18.77;41.42;101343.22;4982359;28;20382;-81
2023/06/14 03:07:32;;;;;;;6.97;4.75;;;;;;;18.66;41.47;101337.69;4990539;28;20113;-81
2023/06/14 03:09:58;;;;;;;7.05;4.40;;;;;;;18.68;41.82;101341.13;4986581;28;20129;-81
2023/06/14 03:12:23;;;;;;;8.70;4.70;;;;;;;18.66;42.06;101343.06;4986949;28;20113;-81
2023/06/14 03:14:50;;;;;;;5.40;4.90;;;;;;;18.59;41.79;101348.78;4988930;28;20041;-81
2023/06/14 03:17:17;;;;;;;7.82;4.80;;;;;;;18.55;41.99;101344.59;4988417;28;20113;-81
2023/06/14 03:19:42;;;;;;;5.93;4.93;;;;;;;18.52;42.54;101360.03;4969512;28;20029;-81
2023/06/14 03:22:08;;;;;;;6.63;4.60;;;;;;;18.51;42.56;101352.94;4984829;28;20026;-81
2023/06/14 03:24:36;;;;;;;4.55;4.15;;;;;;;18.45;42.91;101353.34;4971179;28;20045;-81
2023/06/14 03:27:02;;;;;;;8.57;4.82;;;;;;;18.32;43.72;101355.94;4970398;28;20401;-81
2023/06/14 03:29:27;;;;;;;8.18;4.60;;;;;;;18.34;43.20;101354.03;4987446;28;20018;-81
2023/06/14 03:32:02;;;;;;;8.93;4.50;;;;;;;18.30;43.04;101358.72;4988645;28;20049;-81
2023/06/14 03:34:28;;;;;;;8.15;4.70;;;;;;;18.26;43.56;101359.03;4984686;28;20286;-81
2023/06/14 03:36:53;;;;;;;8.02;4.43;;;;;;;18.26;43.07;101362.56;4983416;28;20386;-81
2023/06/14 03:39:19;;;;;;;8.98;4.50;;;;;;;18.32;43.54;101361.28;4982605;28;20022;-81
2023/06/14 03:41:44;;;;;;;6.13;4.50;;;;;;;18.33;43.47;101371.06;4985190;28;20030;-81
2023/06/14 03:44:10;;;;;;;8.27;4.78;;;;;;;18.28;43.96;101373.19;4984741;28;20477;-81
2023/06/14 03:46:35;;;;;;;6.60;4.60;;;;;;;18.29;43.96;101369.53;4983697;28;20392;-81
2023/06/14 03:49:02;;;;;;;7.45;4.18;;;;;;;18.26;43.54;101362.56;4983393;28;20037;-81
2023/06/14 03:51:28;;;;;;;5.55;4.35;;;;;;;18.23;44.50;101372.59;4966552;28;20031;-81
2023/06/14 03:53:54;;;;;;;8.98;4.43;;;;;;;18.24;44.26;101377.88;4964945;28;20042;-81
2023/06/14 03:56:19;;;;;;;7.53;4.72;;;;;;;18.26;44.36;101380.44;4982723;28;20497;-81
2023/06/14 03:58:45;;;;;;;8.85;4.45;;;;;;;18.15;44.79;101367.75;4966005;28;20028;-81
2023/06/14 04:01:12;;;;;;;5.90;4.10;;;;;;;18.21;44.39;101374.53;4982616;28;20038;-81
2023/06/14 04:03:37;;;;;;;6.55;4.63;;;;;;;18.26;43.87;101372.41;4982430;28;20058;-81
2023/06/14 04:06:05;;;;;;;7.40;4.90;;;;;;;18.29;44.26;101370.41;4984574;28;20446;-81
2023/06/14 04:08:31;;;;;;;5.40;4.22;;;;;;;18.28;44.38;101379.41;4968327;28;20061;-81
2023/06/14 04:10:56;;;;;;;8.98;4.22;;;;;;;18.24;45.03;101375.19;4984956;28;20062;-81
2023/06/14 04:13:21;;;;;;;7.63;4.45;;;;;;;18.21;44.72;101380.72;4987593;28;20025;-81
2023/06/14 04:15:47;;;;;;;7.18;4.65;;;;;;;18.20;44.92;101386.19;4979605;28;20023;-81
2023/06/14 04:18:12;;;;;;;7.55;4.18;;;;;;;18.23;45.18;101394.91;4981335;28;20018;-81
2023/06/14 04:20:39;;;;;;;6.85;4.20;;;;;;;18.28;44.90;101392.78;4986928;28;20036;-81
2023/06/14 04:23:18;;;;;;;6.22;4.18;;;;;;;18.44;47.23;101384.63;4985673;28;20027;-81
2023/06/14 04:25:49;;;;;;;6.65;4.50;;;;;;;18.39;44.80;101389.41;4983879;28;20033;-81
2023/06/14 04:28:19;;;;;;;13.65;5.07;;;;;;;18.39;44.19;101394.75;4988507;28;20078;-81
2023/06/14 04:30:44;;;;;;;8.77;4.80;;;;;;;18.40;44.48;101395.63;4988882;28;20033;-81
2023/06/14 04:33:10;;;;;;;8.32;4.35;;;;;;;18.43;44.53;101398.97;4988167;28;20026;-81
2023/06/14 04:35:37;;;;;;;5.28;4.45;;;;;;;18.53;44.78;101392.06;4985950;28;20109;-81
2023/06/14 04:38:04;;;;;;;6.03;4.78;;;;;;;18.64;44.29;101399.38;4983739;28;20090;-81
2023/06/14 04:40:30;;;;;;;8.65;4.80;;;;;;;18.70;44.18;101396.34;4966596;28;20033;-81
2023/06/14 04:42:57;;;;;;;8.35;4.50;;;;;;;18.77;43.33;101394.13;4983893;28;20101;-81
2023/06/14 04:45:22;;;;;;;4.97;4.47;;;;;;;18.75;43.72;101393.38;4982130;28;20022;-81
2023/06/14 04:47:47;;;;;;;8.63;4.63;;;;;;;18.84;44.04;101398.13;4979417;28;20078;-81
2023/06/14 04:50:13;;;;;;;7.88;4.72;;;;;;;18.89;44.10;101397.84;4988153;28;20512;-81
2023/06/14 04:52:38;;;;;;;10.55;4.88;;;;;;;18.96;43.94;101399.13;4986735;28;20085;-81
2023/06/14 04:55:04;;;;;;;5.88;4.70;;;;;;;18.93;43.20;101404.69;4982838;28;20053;-81
2023/06/14 04:57:31;;;;;;;7.82;4.43;;;;;;;18.94;43.38;101396.56;4985806;28;20120;-81
2023/06/14 04:59:57;;;;;;;5.50;4.80;;;;;;;18.99;43.69;101394.44;4989477;28;20405;-81
2023/06/14 05:02:23;;;;;;;6.88;4.22;;;;;;;19.05;43.84;101412.78;4984806;28;20037;-81
2023/06/14 05:04:50;;;;;;;8.35;4.50;;;;;;;19.07;44.07;101413.53;4984402;28;20022;-81
2023/06/14 05:07:15;;;;;;;8.00;4.53;;;;;;;19.04;45.12;101407.53;4983447;28;20034;-81
2023/06/14 05:09:41;;;;;;;7.55;4.72;;;;;;;19.08;44.80;101409.91;4985940;28;20049;-81
2023/06/14 05:12:09;;;;;;;8.60;4.75;;;;;;;19.10;44.59;101410.63;4988115;28;20027;-81
2023/06/14 05:14:35;;;;;;;9.25;4.95;;;;;;;19.11;44.40;101408.81;4981734;28;20125;-81
2023/06/14 05:17:02;;;;;;;7.88;4.90;;;;;;;19.16;44.56;101419.22;4977527;28;20212;-81
2023/06/14 05:19:27;;;;;;;8.27;4.82;;;;;;;19.13;44.70;101423.00;4981095;28;20034;-81
2023/06/14 05:21:53;;;;;;;8.07;4.85;;;;;;;19.16;44.89;101420.09;4985170;28;20041;-81
2023/06/14 05:24:18;;;;;;;7.68;5.15;;;;;;;19.19;44.02;101417.22;4986976;28;20026;-81
2023/06/14 05:26:43;;;;;;;8.10;5.47;;;;;;;19.27;47.31;101428.28;4981671;28;20026;-81
2023/06/14 05:29:09;;;;;;;8.85;4.70;;;;;;;19.34;48.79;101437.63;4988588;28;20034;-81
2023/06/14 05:31:34;;;;;;;10.50;4.68;;;;;;;19.40;44.39;101431.00;4987267;28;20030;-81
2023/06/14 05:33:59;;;;;;;9.70;4.85;;;;;;;19.50;44.29;101434.78;4982232;28;20492;-81
2023/06/14 05:36:25;;;;;;;6.60;4.57;;;;;;;19.57;44.00;101421.78;4980098;28;20485;-81
2023/06/14 05:38:57;;;;;;;6.53;4.82;;;;;;;19.64;43.55;101424.97;4981436;28;20026;-81
2023/06/14 05:41:22;;;;;;;10.07;4.90;;;;;;;19.63;43.19;101424.06;4979017;28;20026;-81
2023/06/14 05:43:47;;;;;;;7.57;4.78;;;;;;;19.73;43.00;101432.38;4979529;28;20053;-81
2023/06/14 05:46:13;;;;;;;9.52;4.80;;;;;;;19.79;44.50;101423.88;4964394;28;20049;-81
2023/06/14 05:48:38;;;;;;;6.50;4.82;;;;;;;19.83;43.74;101433.44;4984388;28;20034;-81
2023/06/14 05:51:03;;;;;;;9.32;4.72;;;;;;;19.87;44.74;101438.50;4964575;28;20165;-81
2023/06/14 05:53:29;;;;;;;10.02;4.53;;;;;;;19.92;43.07;101446.22;4979482;28;20037;-81
2023/06/14 05:55:54;;;;;;;5.40;4.78;;;;;;;19.98;43.38;101440.41;4960096;28;20041;-81
2023/06/14 05:58:20;;;;;;;8.00;4.70;;;;;;;19.98;42.52;101437.72;4976952;28;20032;-81
2023/06/14 06:00:46;;;;;;;10.57;4.53;;;;;;;20.04;44.74;101442.66;4980599;28;20025;-81
2023/06/14 06:03:12;;;;;;;7.45;4.35;;;;;;;20.07;42.96;101441.59;4970861;28;20682;-81
2023/06/14 06:05:38;;;;;;;6.05;4.20;;;;;;;20.18;44.16;101446.19;4983510;28;20493;-81
2023/06/14 06:08:04;;;;;;;7.47;4.63;;;;;;;20.21;42.73;101446.00;4983664;28;20027;-81
2023/06/14 06:10:29;;;;;;;7.65;4.32;;;;;;;20.15;43.21;101447.28;4964964;28;20034;-81
2023/06/14 06:12:54;;;;;;;5.82;4.72;;;;;;;20.26;42.97;101446.53;4984212;28;20026;-80
2023/06/14 06:15:20;;;;;;;6.78;4.60;;;;;;;20.38;42.75;101451.03;4981242;28;20121;-80
2023/06/14 06:17:46;;;;;;;11.45;4.82;;;;;;;20.56;43.68;101447.06;4982363;28;20018;-81
2023/06/14 06:20:11;;;;;;;8.70;4.97;;;;;;;20.81;42.61;101451.50;4984324;28;20053;-81
2023/06/14 06:22:38;;;;;;;17.85;4.70;;;;;;;20.95;41.51;101460.38;4990928;28;20117;-81
2023/06/14 06:25:03;;;;;;;10.13;4.95;;;;;;;20.98;41.74;101458.28;4978311;28;20049;-81
2023/06/14 06:27:29;;;;;;;9.18;4.80;;;;;;;21.20;41.53;101448.63;4985074;28;20385;-81
2023/06/14 06:29:54;;;;;;;16.98;4.93;;;;;;;21.41;40.72;101460.50;4984277;28;20402;-80
2023/06/14 06:32:20;;;;;;;9.63;4.70;;;;;;;21.56;39.81;101456.63;4983005;28;20492;-80
2023/06/14 06:34:45;;;;;;;9.57;4.22;;;;;;;21.83;39.60;101475.19;4987479;28;20026;-80
2023/06/14 06:37:11;;;;;;;8.73;3.95;;;;;;;21.98;39.23;101465.06;4966589;28;20490;-80
2023/06/14 06:39:36;;;;;;;6.82;4.13;;;;;;;22.02;39.02;101474.59;4967799;28;20033;-80
2023/06/14 06:42:01;;;;;;;8.80;4.38;;;;;;;22.13;38.65;101480.03;4977470;28;20026;-80
2023/06/14 06:44:27;;;;;;;9.63;4.30;;;;;;;22.25;38.92;101480.06;4985752;28;20114;-80
2023/06/14 06:46:52;;;;;;;3.75;3.40;;;;;;;22.44;38.71;101476.75;4964397;28;20034;-80
2023/06/14 06:49:17;;;;;;;5.70;3.65;;;;;;;22.59;42.77;101470.97;4964842;28;20456;-80
2023/06/14 06:51:44;;;;;;;5.50;3.92;;;;;;;22.56;39.84;101479.28;4983876;28;20042;-82
2023/06/14 06:54:10;;;;;;;9.02;4.38;;;;;;;22.78;38.28;101486.50;4986823;28;20025;-81
2023/06/14 06:56:35;;;;;;;9.27;3.72;;;;;;;22.94;40.28;101480.75;4989096;28;20058;-82
2023/06/14 06:59:01;;;;;;;6.90;3.72;;;;;;;23.23;41.77;101489.16;4990362;28;20050;-81
2023/06/14 07:01:28;;;;;;;5.35;3.45;;;;;;;23.34;38.38;101499.03;4961488;28;20569;-81
2023/06/14 07:03:54;;;;;;;6.63;3.95;;;;;;;23.59;38.80;101492.41;4976393;28;20097;-81
2023/06/14 07:06:20;;;;;;;5.28;3.47;;;;;;;23.79;37.56;101502.44;4983041;28;20073;-82
2023/06/14 07:08:46;;;;;;;8.02;3.65;;;;;;;23.82;36.13;101504.00;4986947;28;20026;-82
2023/06/14 07:11:11;;;;;;;8.65;4.15;;;;;;;23.75;37.51;101510.91;4987977;28;20030;-82
2023/06/14 07:13:36;;;;;;;10.40;3.80;;;;;;;23.56;37.77;101500.78;4979079;28;20074;-82
2023/06/14 07:16:04;;;;;;;5.95;3.60;;;;;;;23.55;37.85;101505.34;4979896;28;20072;-82
2023/06/14 07:18:30;;;;;;;6.88;3.72;;;;;;;23.91;37.59;101503.19;4981529;28;20110;-82
2023/06/14 07:20:56;;;;;;;6.32;2.97;;;;;;;24.12;37.63;101500.50;4983715;28;20390;-82
2023/06/14 07:23:22;;;;;;;8.10;3.92;;;;;;;24.19;36.02;101510.63;4985242;28;20033;-82
2023/06/14 07:25:47;;;;;;;6.35;3.78;;;;;;;24.30;35.15;101511.56;4984756;28;20444;-81
2023/06/14 07:28:12;;;;;;;6.22;3.35;;;;;;;24.62;36.01;101511.41;4982408;28;20548;-82
2023/06/14 07:30:38;;;;;;;8.43;3.85;;;;;;;25.15;36.08;101511.19;4986784;28;20113;-82
2023/06/14 07:33:03;;;;;;;6.07;4.00;;;;;;;25.33;32.87;101514.06;4990760;28;20030;-82
2023/06/14 07:35:29;;;;;;;5.57;3.30;;;;;;;25.94;34.08;101511.09;4980823;28;20486;-82
2023/06/14 07:37:54;;;;;;;7.85;3.75;;;;;;;26.61;32.02;101515.47;4989830;28;20045;-82
2023/06/14 07:40:20;;;;;;;11.35;3.92;;;;;;;27.42;31.16;101526.44;4987300;28;20469;-81
2023/06/14 07:42:45;;;;;;;8.27;3.60;;;;;;;27.74;29.26;101518.75;4991893;28;20022;-82
2023/06/14 07:45:13;;;;;;;5.80;3.60;;;;;;;28.20;28.64;101531.19;4983072;28;20026;-82
2023/06/14 07:47:38;;;;;;;4.22;3.28;;;;;;;28.23;28.75;101528.16;4990082;28;20309;-82
2023/06/14 07:50:04;;;;;;;9.57;3.40;;;;;;;28.33;27.86;101533.47;4987694;28;20549;-82
2023/06/14 07:52:30;;;;;;;4.68;3.63;;;;;;;29.00;28.09;101528.22;4989393;28;20327;-82
2023/06/14 07:54:56;;;;;;;5.28;3.50;;;;;;;29.26;26.46;101534.44;4987082;28;20037;-82
2023/06/14 07:57:21;;;;;;;4.90;3.22;;;;;;;29.75;26.26;101539.94;4986771;28;20021;-82
2023/06/14 07:59:47;;;;;;;4.47;3.20;;;;;;;29.61;25.99;101541.50;4990077;28;20385;-82
2023/06/14 08:02:12;;;;;;;4.43;3.07;;;;;;;29.60;26.16;101541.66;4986421;28;20537;-82
2023/06/14 08:04:37;;;;;;;7.20;3.22;;;;;;;30.01;25.29;101536.22;4986986;28;20281;-82
2023/06/14 08:07:03;;;;;;;4.50;2.75;;;;;;;29.91;24.95;101547.31;4986513;28;20536;-82
2023/06/14 08:09:29;;;;;;;5.03;3.10;;;;;;;29.89;24.65;101546.59;4986625;28;20122;-82
2023/06/14 08:11:55;;;;;;;6.35;2.97;;;;;;;30.43;25.09;101542.31;4980823;28;20070;-82
2023/06/14 08:14:20;;;;;;;6.15;3.38;;;;;;;30.38;24.22;101536.53;4972354;28;20065;-82
2023/06/14 08:16:45;;;;;;;5.85;2.88;;;;;;;30.84;25.22;101550.38;4986659;28;20034;-82
2023/06/14 08:19:11;;;;;;;4.97;2.80;;;;;;;31.12;24.66;101544.44;4988559;28;20058;-82
2023/06/14 08:21:36;;;;;;;4.30;2.65;;;;;;;31.09;23.48;101544.78;4987568;28;20486;-82
2023/06/14 08:24:05;;;;;;;5.82;2.88;;;;;;;31.23;23.89;101541.28;4988318;28;20022;-82
2023/06/14 08:26:31;;;;;;;3.85;2.92;;;;;;;31.32;24.49;101540.25;4970674;28;20405;-82
2023/06/14 08:28:57;;;;;;;5.60;2.65;;;;;;;31.39;23.60;101541.25;4985706;28;20575;-82
2023/06/14 08:31:24;;;;;;;5.78;3.05;;;;;;;31.47;22.99;101541.16;4988918;28;20058;-82
2023/06/14 08:33:49;;;;;;;6.38;2.42;;;;;;;31.47;22.44;101537.59;4986596;28;20480;-82
2023/06/14 08:36:15;;;;;;;5.13;2.60;;;;;;;31.66;22.42;101536.25;4982877;28;20031;-81
2023/06/14 08:38:40;;;;;;;5.50;2.47;;;;;;;32.19;23.58;101539.91;4983263;28;20512;-82
2023/06/14 08:41:06;;;;;;;8.70;3.00;;;;;;;32.12;21.27;101547.16;4969803;28;20019;-82
2023/06/14 08:43:32;;;;;;;5.80;2.58;;;;;;;32.16;22.54;101546.59;4988081;28;20289;-82
2023/06/14 08:46:00;;;;;;;3.78;2.47;;;;;;;31.60;22.24;101540.56;4987643;28;20022;-82
2023/06/14 08:48:26;;;;;;;6.95;2.63;;;;;;;31.64;23.69;101528.22;4987861;28;20030;-82
2023/06/14 08:51:01;;;;;;;10.52;3.08;;;;;;;31.67;22.10;101537.97;4972734;28;20170;-82
2023/06/14 08:53:33;;;;;;;7.03;2.45;;;;;;;32.41;22.93;101543.63;4991157;28;20025;-81
2023/06/14 08:56:04;;;;;;;6.55;2.60;;;;;;;32.42;20.80;101540.72;4984498;28;20045;-82
2023/06/14 08:58:31;;;;;;;3.90;2.20;;;;;;;32.32;20.50;101542.84;4981693;28;20033;-82
2023/06/14 09:00:57;;;;;;;4.28;2.22;;;;;;;32.42;21.56;101531.66;4986048;28;20097;-82
2023/06/14 09:03:23;;;;;;;3.22;1.98;;;;;;;32.38;21.66;101536.66;4981380;28;20117;-82
2023/06/14 09:05:48;;;;;;;5.28;2.20;;;;;;;32.28;21.11;101533.31;4980417;28;20133;-82
2023/06/14 09:08:13;;;;;;;3.55;2.15;;;;;;;32.07;20.90;101536.75;4980731;28;20034;-82
2023/06/14 09:10:40;;;;;;;6.47;2.20;;;;;;;32.06;20.44;101534.22;4981378;28;20556;-82
2023/06/14 09:13:06;;;;;;;5.10;2.10;;;;;;;31.44;21.13;101547.00;4981171;28;20034;-82
2023/06/14 09:15:32;;;;;;;3.35;1.80;;;;;;;31.09;21.29;101536.59;4982730;28;20551;-82
2023/06/14 09:17:57;;;;;;;4.15;2.00;;;;;;;31.16;21.80;101538.44;4983949;28;20078;-82
2023/06/14 09:20:24;;;;;;;1.95;1.63;;;;;;;31.33;21.21;101544.69;4982926;28;20113;-82
2023/06/14 09:22:50;;;;;;;3.63;1.65;;;;;;;31.29;20.99;101537.03;4979693;28;20038;-81
2023/06/14 09:25:15;;;;;;;4.25;1.55;;;;;;;31.27;19.75;101531.75;4961648;28;20030;-82
2023/06/14 09:27:42;;;;;;;6.05;1.65;;;;;;;31.33;20.58;101535.63;4983789;28;20068;-81
2023/06/14 09:30:09;;;;;;;14.00;1.90;;;;;;;31.27;20.16;101541.78;4982847;28;20105;-82
2023/06/14 09:32:41;;;;;;;4.03;1.27;;;;;;;31.20;20.25;101538.94;4987666;28;20041;-81
2023/06/14 09:35:07;;;;;;;4.10;1.40;;;;;;;31.17;20.32;101544.75;4989722;28;20262;-81
2023/06/14 09:37:34;;;;;;;5.85;1.40;;;;;;;31.56;19.83;101538.38;4978639;28;20022;-82
2023/06/14 09:40:00;;;;;;;3.28;1.48;;;;;;;31.87;19.27;101554.75;4980111;28;20041;-81
2023/06/14 09:42:27;;;;;;;2.35;1.08;;;;;;;31.28;19.75;101560.75;4987653;28;20034;-81
2023/06/14 09:44:53;;;;;;;1.98;1.33;;;;;;;31.17;21.46;101555.69;4986298;28;20434;-81
2023/06/14 09:47:19;;;;;;;1.50;1.40;;;;;;;31.46;20.61;101560.50;4982385;28;20030;-81
2023/06/14 09:49:45;;;;;;;1.27;1.10;;;;;;;31.11;20.64;101559.16;4986561;28;20038;-81
2023/06/14 09:52:14;;;;;;;3.30;1.48;;;;;;;31.46;21.74;101555.88;4981330;28;20618;-81
2023/06/14 09:54:46;;;;;;;3.30;1.50;;;;;;;31.97;19.95;101553.44;4981634;28;20477;-82
2023/06/14 09:57:16;;;;;;;8.95;1.65;;;;;;;32.04;18.85;101550.84;4981769;28;20061;-82
2023/06/14 09:59:45;;;;;;;4.22;1.55;;;;;;;32.46;19.48;101563.94;4983011;28;20038;-82
2023/06/14 10:02:42;;;;;;;34.63;3.92;;;;;;;32.69;19.13;101552.91;4981552;28;20386;-82
2023/06/14 10:05:09;;;;;;;6.07;1.60;;;;;;;32.89;19.78;101553.16;4978878;28;20521;-82
2023/06/14 10:07:40;;;;;;;1.42;1.25;;;;;;;32.50;19.35;101551.59;4967405;28;20026;-82
2023/06/14 10:10:06;;;;;;;2.63;1.48;;;;;;;32.47;18.81;101543.75;4969678;28;20065;-83
2023/06/14 10:12:32;;;;;;;4.93;1.58;;;;;;;32.84;20.24;101541.09;4982741;28;20030;-82
2023/06/14 10:14:58;;;;;;;2.88;1.60;;;;;;;32.94;18.95;101547.13;4986095;28;20069;-80
2023/06/14 10:17:40;;;;;;;2.95;1.70;;;;;;;33.23;18.85;101538.84;4987963;28;20065;-81
2023/06/14 10:20:23;;;;;;;;;;;;;;;33.62;19.28;101526.63;4990022;28;20033;-82
2023/06/14 10:22:58;;;;;;;4.40;1.60;;;;;;;33.37;19.86;101525.28;4987893;28;19924;-81
2023/06/14 10:25:31;;;;;;;2.55;1.65;;;;;;;33.24;18.21;101534.19;4984146;28;20049;-81
2023/06/14 10:28:22;;;;;;;4.65;1.85;;;;;;;33.40;19.37;101539.44;4985699;28;20034;-81
2023/06/14 10:31:08;;;;;;;2.15;1.65;;;;;;;33.28;19.11;101538.25;4981107;28;20081;-82
2023/06/14 10:33:40;;;;;;;2.67;1.65;;;;;;;33.39;18.39;101531.41;4983309;28;20061;-82
2023/06/14 10:36:34;;;;;;;4.90;2.03;;;;;;;33.69;17.50;101534.91;4988697;28;20046;-82
2023/06/14 10:39:08;;;;;;;5.20;1.80;;;;;;;33.91;17.95;101533.84;4969749;28;20478;-84
2023/06/14 10:41:40;;;;;;;5.05;1.80;;;;;;;33.72;17.25;101532.63;4981557;28;20031;-82
2023/06/14 10:44:12;;;;;;;3.83;1.70;;;;;;;33.82;18.50;101543.25;4987954;28;20383;-82
2023/06/14 10:46:37;;;;;;;2.70;1.60;;;;;;;34.09;17.31;101543.47;4983375;28;20490;-81
2023/06/14 10:49:03;;;;;;;3.88;1.73;;;;;;;34.20;17.98;101548.44;4983639;28;20039;-82
2023/06/14 10:51:31;;;;;;;2.40;1.67;;;;;;;34.15;18.04;101532.56;4986091;28;20034;-82
2023/06/14 10:53:59;;;;;;;3.67;1.58;;;;;;;34.05;18.01;101534.84;4981465;28;20037;-82
2023/06/14 10:56:32;;;;;;;3.22;1.65;;;;;;;34.25;17.08;101530.31;4987192;28;20031;-81
2023/06/14 10:58:57;;;;;;;5.43;2.28;;;;;;;33.53;18.04;101532.41;4987213;28;20077;-81
2023/06/14 11:01:38;;;;;;;1.92;1.75;;;;;;;32.96;18.95;101534.94;4985362;28;20038;-81
2023/06/14 11:04:10;;;;;;;8.23;2.03;;;;;;;33.38;18.57;101536.03;4985061;28;20030;-81
2023/06/14 11:06:46;;;;;;;2.67;1.67;;;;;;;33.88;18.65;101536.13;4981014;28;20194;-80
2023/06/14 11:09:37;;;;;;;4.47;2.10;;;;;;;33.96;17.99;101550.59;4984010;28;20657;-81
2023/06/14 11:12:03;;;;;;;3.88;1.83;;;;;;;34.08;17.67;101541.78;4984078;28;20029;-81
2023/06/14 11:14:32;;;;;;;2.25;1.80;;;;;;;33.65;18.41;101544.56;4986719;28;20034;-82
2023/06/14 11:16:57;;;;;;;3.55;1.60;;;;;;;33.65;17.82;101531.69;4967620;28;20022;-81
2023/06/14 11:19:22;;;;;;;2.85;1.92;;;;;;;33.76;17.07;101535.78;4985382;28;20363;-81
2023/06/14 11:21:49;;;;;;;2.97;1.67;;;;;;;33.68;18.46;101531.31;4984163;28;20034;-80
2023/06/14 11:24:14;;;;;;;1.90;1.70;;;;;;;33.87;19.42;101527.06;4990731;28;20037;-80